Flight Track Log - Related Links

Times and Time Zones

All times are in EDT time to prevent confusion due to time zone crossing. See the SWA3497 flight status page for this flight to view local times or setup timezone preferences in your user account.

Time Position Orientation Groundspeed Altitude Reporting Facility
EDT Latitude Longitude Course Direction KTS MPH feet Rate Location/Type
Mon 02:04:18 PM 38.0878 -85.7103 100° East 186 214 4,500  Level Indianapolis Center
Mon 02:05:20 PM 38.0744 -85.6117 100° East 273 314 6,600 2,613 Climbing Indianapolis Center
Mon 02:06:22 PM 38.0811 -85.5089 85° East 286 329 9,900 2,806 Climbing Indianapolis Center
Mon 02:07:24 PM 38.0844 -85.3950 88° East 319 367 12,400 2,806 Climbing Indianapolis Center
Mon 02:08:26 PM 38.0978 -85.2675 82° East 356 410 15,700 3,145 Climbing Indianapolis Center
Mon 02:09:28 PM 38.1086 -85.1303 84° East 375 432 18,900 2,903 Climbing Indianapolis Center
Mon 02:10:30 PM 38.1208 -84.9906 84° East 395 455 21,700 2,516 Climbing Indianapolis Center
Mon 02:11:32 PM 38.1339 -84.8464 83° East 407 468 24,100 2,244 Climbing Indianapolis Center
Mon 02:12:33 PM 38.1461 -84.6950 84° East 428 493 26,300 2,244 Climbing Indianapolis Center
Mon 02:13:35 PM 38.1608 -84.5153 84° East 438 504 28,700 2,032 Climbing Indianapolis Center
Mon 02:14:37 PM 38.1733 -84.3556 84° East 453 521 30,500 1,113 Climbing Indianapolis Center
Mon 02:15:39 PM 38.1864 -84.1939 84° East 457 526 31,000 774 Climbing Indianapolis Center
Mon 02:16:41 PM 38.1992 -84.0331 84° East 457 526 32,100 1,512 Climbing Indianapolis Center
Mon 02:17:42 PM 38.2108 -83.8736 85° East 452 520 34,100 1,756 Climbing Indianapolis Center
Mon 02:18:44 PM 38.2225 -83.7156 85° East 448 516 35,700 1,403 Climbing Indianapolis Center
Mon 02:19:46 PM 38.2356 -83.5283 85° East 452 520 37,000 629 Climbing Indianapolis Center
Mon 02:20:48 PM 38.2467 -83.3711 85° East 447 514 37,000 194 Level Indianapolis Center
Mon 02:21:50 PM 38.2589 -83.2131 84° East 448 516 37,400 634 Climbing Indianapolis Center
Mon 02:22:51 PM 38.2692 -83.0506 85° East 457 526 38,300 780 Climbing Indianapolis Center
Mon 02:23:53 PM 38.2794 -82.8867 85° East 462 532 39,000 339 Climbing Indianapolis Center
Mon 02:24:55 PM 38.2900 -82.7247 85° East 459 528 39,000  Level Indianapolis Center
Mon 02:25:57 PM 38.3011 -82.5642 85° East 455 524 39,000  Level Indianapolis Center
Mon 02:26:59 PM 38.3128 -82.3908 85° East 455 524 39,000  Level Indianapolis Center
Mon 02:28:01 PM 38.3225 -82.2319 85° East 453 521 39,000  Level Indianapolis Center
Mon 02:29:02 PM 38.3333 -82.0733 85° East 451 519 39,000  Level Indianapolis Center
Mon 02:30:04 PM 38.3422 -81.9119 86° East 457 526 39,000  Level Indianapolis Center
Mon 02:31:06 PM 38.3489 -81.7178 87° East 462 532 39,000  Level Indianapolis Center
Mon 02:32:08 PM 38.3433 -81.5558 92° East 462 532 39,000  Level Indianapolis Center
Mon 02:33:10 PM 38.3381 -81.3931 92° East 465 535 39,000  Level Indianapolis Center
Mon 02:34:12 PM 38.3319 -81.2306 93° East 465 535 39,000  Level Indianapolis Center
Mon 02:35:06 PM 38.3272 -81.0761 92° East 464 534 39,000  Level Washington Center
Mon 02:36:04 PM 38.3203 -80.9089 93° East 464 534 39,000  Level Washington Center
Mon 02:37:05 PM 38.3147 -80.7497 92° East 464 534 39,000  Level Washington Center
Mon 02:38:06 PM 38.3092 -80.5825 92° East 464 534 39,000  Level Washington Center
Mon 02:39:06 PM 38.3028 -80.4392 93° East 464 534 39,000  Level Washington Center
Mon 02:40:04 PM 38.2967 -80.2747 93° East 464 534 39,000  Level Washington Center
Mon 02:41:05 PM 38.2906 -80.1103 93° East 464 534 39,000  Level Washington Center
Mon 02:42:04 PM 38.2819 -79.9458 94° East 464 534 39,000 -202 Level Washington Center
Mon 02:43:04 PM 38.2772 -79.7842 92° East 464 534 38,600 -1,686 Descending Washington Center
Mon 02:44:05 PM 38.2689 -79.6011 93° East 464 534 35,600 -2,607 Descending Washington Center
Mon 02:45:06 PM 38.2619 -79.4367 93° East 464 534 33,300 -2,218 Descending Washington Center
Mon 02:46:04 PM 38.2833 -79.2817 80° East 444 511 31,200 -2,067 Descending Washington Center
Mon 02:47:05 PM 38.3211 -79.1328 72° East 444 511 29,200 -2,016 Descending Washington Center
Mon 02:48:06 PM 38.3583 -79.0047 70° East 429 494 27,100 -1,091 Descending Washington Center
Mon 02:49:06 PM 38.3958 -78.8528 72° East 424 488 27,000 -153 Descending Washington Center
Mon 02:50:04 PM 38.4308 -78.7167 72° East 412 474 26,800 -610 Descending Washington Center
Mon 02:51:04 PM 38.4633 -78.5828 73° East 402 463 25,800 -992 Descending Washington Center
Mon 02:52:05 PM 38.4958 -78.4486 73° East 395 455 24,800 -992 Descending Washington Center
Mon 02:53:05 PM 38.5281 -78.3147 73° East 390 449 23,800 -992 Descending Washington Center
Mon 02:54:06 PM 38.5622 -78.1831 72° East 390 449 22,800 -1,109 Descending Washington Center
Mon 02:55:04 PM 38.5942 -78.0542 72° East 390 449 21,600 -1,513 Descending Washington Center
Mon 02:56:05 PM 38.6258 -77.9275 72° East 379 436 19,800 -1,311 Descending Washington Center
Mon 02:57:03 PM 38.6450 -77.8033 79° East 367 422 19,000 -403 Descending Washington Center
Mon 02:58:04 PM 38.6514 -77.6758 86° East 367 422 19,000 -298 Level Washington Center
Mon 02:59:04 PM 38.6578 -77.5458 86° East 362 417 18,400 -987 Descending Washington Center
Mon 02:59:23 PM 38.6667 -77.5000 76° East 357 411 17,700 -1,973 Descending Potomac TRACON
Mon 03:00:17 PM 38.6667 -77.3833 90° East 353 406 16,000 -1,211 Descending Potomac TRACON
Mon 03:01:17 PM 38.6833 -77.2667 80° East 338 389 15,400 -1,100 Descending Potomac TRACON
Mon 03:02:17 PM 38.6833 -77.1500 90° East 325 374 13,800 -1,636 Descending Potomac TRACON
Mon 03:03:18 PM 38.6833 -77.0500 90° East 323 372 12,100 -1,289 Descending Potomac TRACON
Mon 03:04:18 PM 38.7000 -76.9167 81° East 308 354 11,200 -1,075 Descending Potomac TRACON
Mon 03:05:04 PM 38.6983 -76.8525 92° East 304 350 10,200 -1,131 Descending Washington Center
Mon 03:07:13 PM 38.7500 -76.6500 72° East 276 318 7,900 -1,175 Descending Potomac TRACON
Mon 03:08:13 PM 38.7833 -76.5667 63° Northeast 281 323 6,500 -1,150 Descending Potomac TRACON
Mon 03:09:13 PM 38.8500 -76.5333 21° North 287 330 5,600 -1,000 Descending Potomac TRACON
Mon 03:10:19 PM 38.9333 -76.5833 335° Northwest 279 321 4,400 -762 Descending Potomac TRACON
Mon 03:11:19 PM 39.0000 -76.6500 322° Northwest 280 322 4,000 -211 Descending Potomac TRACON
Mon 03:12:13 PM 39.0333 -76.7167 303° West 278 320 4,000  Level Potomac TRACON
Mon 03:13:08 PM 39.0667 -76.8000 297° West 273 314 4,000 -496 Level Potomac TRACON
Mon 03:14:14 PM 39.0833 -76.8833 284° West 258 297 3,000 -900 Descending Potomac TRACON
Mon 03:15:08 PM 39.1333 -76.9167 333° Northwest 245 282 2,200 -526 Descending Potomac TRACON
Mon 03:16:08 PM 39.1833 -76.8833 27° Northeast 204 235 2,000 -105 Descending Potomac TRACON
Mon 03:17:02 PM 39.1833 -76.8333 90° East 151 174 2,000 -211 Level Potomac TRACON
Mon 03:18:02 PM 39.1833 -76.7833 90° East 143 165 1,600 -500 Descending Potomac TRACON
Mon 03:19:02 PM 39.1833 -76.7500 90° East 127 146 1,000 -600 Descending Potomac TRACON

Login

Don't have an account? Register now (free) for customized features, flight alerts, and more!